sensor_id;sensor_type;location;lat;lon;timestamp;pressure;altitude;pressure_sealevel;temperature;humidity
38400;BME280;24180;42.676;23.320;2023-02-19T00:01:31;95075.81;;;6.03;100.00
38400;BME280;24180;42.676;23.320;2023-02-19T00:04:05;95067.81;;;5.83;100.00
38400;BME280;24180;42.676;23.320;2023-02-19T00:06:32;95057.97;;;5.77;100.00
38400;BME280;24180;42.676;23.320;2023-02-19T00:08:59;95062.78;;;5.94;100.00
38400;BME280;24180;42.676;23.320;2023-02-19T00:11:27;95030.69;;;5.50;100.00
38400;BME280;24180;42.676;23.320;2023-02-19T00:13:54;95056.66;;;5.71;100.00
38400;BME280;24180;42.676;23.320;2023-02-19T00:16:32;95053.72;;;6.01;100.00
38400;BME280;24180;42.676;23.320;2023-02-19T00:18:59;95055.81;;;5.71;100.00
38400;BME280;24180;42.676;23.320;2023-02-19T00:21:25;95037.69;;;5.61;100.00
38400;BME280;24180;42.676;23.320;2023-02-19T00:23:53;95035.75;;;5.52;100.00
38400;BME280;24180;42.676;23.320;2023-02-19T00:26:19;95019.44;;;5.40;100.00
38400;BME280;24180;42.676;23.320;2023-02-19T00:28:46;95042.97;;;5.71;100.00
38400;BME280;24180;42.676;23.320;2023-02-19T00:31:16;95053.53;;;5.79;100.00
38400;BME280;24180;42.676;23.320;2023-02-19T00:33:42;95025.94;;;5.70;100.00
38400;BME280;24180;42.676;23.320;2023-02-19T00:36:08;95044.03;;;5.68;100.00
38400;BME280;24180;42.676;23.320;2023-02-19T00:38:38;95032.06;;;5.80;100.00
38400;BME280;24180;42.676;23.320;2023-02-19T00:41:04;95011.50;;;5.56;100.00
38400;BME280;24180;42.676;23.320;2023-02-19T00:46:16;95012.16;;;5.71;100.00
38400;BME280;24180;42.676;23.320;2023-02-19T00:48:43;95022.28;;;5.85;100.00
38400;BME280;24180;42.676;23.320;2023-02-19T00:51:08;94992.63;;;5.44;100.00
38400;BME280;24180;42.676;23.320;2023-02-19T00:53:34;95022.34;;;5.72;100.00
38400;BME280;24180;42.676;23.320;2023-02-19T00:55:59;94954.66;;;5.24;100.00
38400;BME280;24180;42.676;23.320;2023-02-19T00:58:24;94990.38;;;5.27;100.00
38400;BME280;24180;42.676;23.320;2023-02-19T01:00:50;94977.22;;;5.44;100.00
38400;BME280;24180;42.676;23.320;2023-02-19T01:03:15;94991.22;;;5.64;100.00
38400;BME280;24180;42.676;23.320;2023-02-19T01:05:41;94986.50;;;5.58;100.00
38400;BME280;24180;42.676;23.320;2023-02-19T01:08:06;95012.38;;;5.68;100.00
38400;BME280;24180;42.676;23.320;2023-02-19T01:10:31;95026.66;;;5.72;100.00
38400;BME280;24180;42.676;23.320;2023-02-19T01:12:57;95006.28;;;5.45;100.00
38400;BME280;24180;42.676;23.320;2023-02-19T01:15:22;95006.25;;;5.57;100.00
38400;BME280;24180;42.676;23.320;2023-02-19T01:17:48;94992.47;;;5.58;100.00
38400;BME280;24180;42.676;23.320;2023-02-19T01:20:13;94984.75;;;5.58;100.00
38400;BME280;24180;42.676;23.320;2023-02-19T01:22:38;95010.72;;;5.66;100.00
38400;BME280;24180;42.676;23.320;2023-02-19T01:25:04;95005.44;;;5.81;100.00
38400;BME280;24180;42.676;23.320;2023-02-19T01:27:30;95004.59;;;5.56;100.00
38400;BME280;24180;42.676;23.320;2023-02-19T01:29:55;95000.44;;;5.66;100.00
38400;BME280;24180;42.676;23.320;2023-02-19T01:32:20;95004.34;;;5.36;100.00
38400;BME280;24180;42.676;23.320;2023-02-19T01:34:46;95004.66;;;5.31;100.00
38400;BME280;24180;42.676;23.320;2023-02-19T01:37:11;95031.44;;;5.52;100.00
38400;BME280;24180;42.676;23.320;2023-02-19T01:39:38;95013.19;;;5.32;100.00
38400;BME280;24180;42.676;23.320;2023-02-19T01:42:04;95019.84;;;5.34;100.00
38400;BME280;24180;42.676;23.320;2023-02-19T01:46:56;95053.94;;;5.49;100.00
38400;BME280;24180;42.676;23.320;2023-02-19T01:49:29;95058.13;;;5.50;100.00
38400;BME280;24180;42.676;23.320;2023-02-19T01:52:03;95071.41;;;5.31;100.00
38400;BME280;24180;42.676;23.320;2023-02-19T01:54:33;95047.50;;;5.18;100.00
38400;BME280;24180;42.676;23.320;2023-02-19T01:57:00;95026.25;;;5.16;100.00
38400;BME280;24180;42.676;23.320;2023-02-19T01:59:28;95037.72;;;5.36;100.00
38400;BME280;24180;42.676;23.320;2023-02-19T02:01:53;95048.25;;;5.69;100.00
38400;BME280;24180;42.676;23.320;2023-02-19T02:04:19;95040.41;;;5.71;100.00
38400;BME280;24180;42.676;23.320;2023-02-19T02:06:51;95058.06;;;5.75;100.00
38400;BME280;24180;42.676;23.320;2023-02-19T02:09:18;95047.41;;;5.69;100.00
38400;BME280;24180;42.676;23.320;2023-02-19T02:12:03;95046.34;;;5.84;100.00
38400;BME280;24180;42.676;23.320;2023-02-19T02:14:31;95025.53;;;5.63;100.00
38400;BME280;24180;42.676;23.320;2023-02-19T02:17:26;95049.38;;;5.65;100.00
38400;BME280;24180;42.676;23.320;2023-02-19T02:20:02;95044.78;;;5.57;100.00
38400;BME280;24180;42.676;23.320;2023-02-19T02:22:47;95026.91;;;5.43;100.00
38400;BME280;24180;42.676;23.320;2023-02-19T02:30:42;95047.38;;;5.32;100.00
38400;BME280;24180;42.676;23.320;2023-02-19T02:36:37;95054.88;;;5.35;100.00
38400;BME280;24180;42.676;23.320;2023-02-19T02:39:08;95029.72;;;5.28;100.00
38400;BME280;24180;42.676;23.320;2023-02-19T02:41:44;95053.75;;;5.39;100.00
38400;BME280;24180;42.676;23.320;2023-02-19T02:44:10;95039.78;;;5.31;100.00
38400;BME280;24180;42.676;23.320;2023-02-19T02:46:40;95044.28;;;5.40;100.00
38400;BME280;24180;42.676;23.320;2023-02-19T02:49:16;95037.34;;;5.29;100.00
38400;BME280;24180;42.676;23.320;2023-02-19T02:51:46;95036.06;;;5.35;100.00
38400;BME280;24180;42.676;23.320;2023-02-19T02:54:22;95056.63;;;5.22;100.00
38400;BME280;24180;42.676;23.320;2023-02-19T02:57:07;95030.34;;;5.31;100.00
38400;BME280;24180;42.676;23.320;2023-02-19T02:59:39;95017.84;;;4.89;100.00
38400;BME280;24180;42.676;23.320;2023-02-19T03:02:10;95053.75;;;5.14;100.00
38400;BME280;24180;42.676;23.320;2023-02-19T03:10:19;95060.13;;;4.96;100.00
38400;BME280;24180;42.676;23.320;2023-02-19T03:12:50;95035.81;;;4.89;100.00
38400;BME280;24180;42.676;23.320;2023-02-19T03:15:40;95056.13;;;5.04;100.00
38400;BME280;24180;42.676;23.320;2023-02-19T03:18:29;95030.47;;;4.92;100.00
38400;BME280;24180;42.676;23.320;2023-02-19T03:21:15;95069.06;;;5.15;100.00
38400;BME280;24180;42.676;23.320;2023-02-19T03:23:44;95074.41;;;5.12;100.00
38400;BME280;24180;42.676;23.320;2023-02-19T03:26:31;95050.78;;;5.07;100.00
38400;BME280;24180;42.676;23.320;2023-02-19T03:28:58;95091.13;;;5.18;100.00
38400;BME280;24180;42.676;23.320;2023-02-19T03:31:45;95078.00;;;5.10;100.00
38400;BME280;24180;42.676;23.320;2023-02-19T03:34:18;95065.47;;;5.18;100.00
38400;BME280;24180;42.676;23.320;2023-02-19T03:36:51;95089.78;;;5.38;100.00
38400;BME280;24180;42.676;23.320;2023-02-19T03:39:21;95066.06;;;5.34;100.00
38400;BME280;24180;42.676;23.320;2023-02-19T03:44:31;95069.69;;;5.19;100.00
38400;BME280;24180;42.676;23.320;2023-02-19T03:47:02;95090.63;;;5.13;100.00
38400;BME280;24180;42.676;23.320;2023-02-19T03:49:50;95096.06;;;5.08;100.00
38400;BME280;24180;42.676;23.320;2023-02-19T03:52:41;95109.81;;;5.07;100.00
38400;BME280;24180;42.676;23.320;2023-02-19T03:55:24;95076.38;;;4.96;100.00
38400;BME280;24180;42.676;23.320;2023-02-19T04:03:19;95127.50;;;5.25;100.00
38400;BME280;24180;42.676;23.320;2023-02-19T04:05:53;95117.63;;;5.18;100.00
38400;BME280;24180;42.676;23.320;2023-02-19T04:08:21;95101.22;;;5.21;100.00
38400;BME280;24180;42.676;23.320;2023-02-19T04:10:49;95089.50;;;5.17;100.00
38400;BME280;24180;42.676;23.320;2023-02-19T04:13:18;95105.63;;;5.32;100.00
38400;BME280;24180;42.676;23.320;2023-02-19T04:15:46;95109.72;;;5.22;100.00
38400;BME280;24180;42.676;23.320;2023-02-19T04:18:17;95113.22;;;5.08;100.00
38400;BME280;24180;42.676;23.320;2023-02-19T04:20:46;95123.19;;;5.12;100.00
38400;BME280;24180;42.676;23.320;2023-02-19T04:23:13;95118.25;;;4.97;100.00
38400;BME280;24180;42.676;23.320;2023-02-19T04:25:44;95113.91;;;5.10;100.00
38400;BME280;24180;42.676;23.320;2023-02-19T04:28:13;95111.47;;;5.21;100.00
38400;BME280;24180;42.676;23.320;2023-02-19T04:30:41;95127.28;;;5.40;100.00
38400;BME280;24180;42.676;23.320;2023-02-19T04:33:06;95115.69;;;5.47;100.00
38400;BME280;24180;42.676;23.320;2023-02-19T04:35:31;95121.25;;;5.41;100.00
38400;BME280;24180;42.676;23.320;2023-02-19T04:37:57;95096.38;;;5.29;100.00
38400;BME280;24180;42.676;23.320;2023-02-19T04:40:22;95094.53;;;5.31;100.00
38400;BME280;24180;42.676;23.320;2023-02-19T04:42:48;95121.72;;;5.46;100.00
38400;BME280;24180;42.676;23.320;2023-02-19T04:45:13;95110.84;;;5.30;100.00
38400;BME280;24180;42.676;23.320;2023-02-19T04:47:38;95100.69;;;5.16;100.00
38400;BME280;24180;42.676;23.320;2023-02-19T04:50:04;95124.00;;;5.38;100.00
38400;BME280;24180;42.676;23.320;2023-02-19T04:52:30;95129.13;;;5.38;100.00
38400;BME280;24180;42.676;23.320;2023-02-19T04:54:55;95132.22;;;5.43;100.00
38400;BME280;24180;42.676;23.320;2023-02-19T04:57:20;95109.63;;;5.48;100.00
38400;BME280;24180;42.676;23.320;2023-02-19T04:59:46;95110.72;;;5.70;100.00
38400;BME280;24180;42.676;23.320;2023-02-19T05:02:11;95127.56;;;5.86;100.00
38400;BME280;24180;42.676;23.320;2023-02-19T05:04:37;95116.78;;;5.81;100.00
38400;BME280;24180;42.676;23.320;2023-02-19T05:07:02;95127.25;;;5.91;100.00
38400;BME280;24180;42.676;23.320;2023-02-19T05:09:27;95131.97;;;5.97;100.00
38400;BME280;24180;42.676;23.320;2023-02-19T05:12:11;95127.59;;;6.10;100.00
38400;BME280;24180;42.676;23.320;2023-02-19T05:14:37;95132.75;;;6.10;100.00
38400;BME280;24180;42.676;23.320;2023-02-19T05:17:02;95146.88;;;6.04;100.00
38400;BME280;24180;42.676;23.320;2023-02-19T05:19:27;95139.38;;;5.76;100.00
38400;BME280;24180;42.676;23.320;2023-02-19T05:21:53;95140.00;;;5.67;100.00
38400;BME280;24180;42.676;23.320;2023-02-19T05:24:18;95122.97;;;5.41;100.00
38400;BME280;24180;42.676;23.320;2023-02-19T05:26:44;95117.63;;;5.31;100.00
38400;BME280;24180;42.676;23.320;2023-02-19T05:29:09;95149.38;;;5.55;100.00
38400;BME280;24180;42.676;23.320;2023-02-19T05:31:34;95125.72;;;5.50;100.00
38400;BME280;24180;42.676;23.320;2023-02-19T05:34:00;95126.25;;;5.55;100.00
38400;BME280;24180;42.676;23.320;2023-02-19T05:36:26;95148.13;;;5.74;100.00
38400;BME280;24180;42.676;23.320;2023-02-19T05:38:53;95151.78;;;5.82;100.00
38400;BME280;24180;42.676;23.320;2023-02-19T05:41:22;95154.41;;;5.70;100.00
38400;BME280;24180;42.676;23.320;2023-02-19T05:43:48;95137.56;;;5.53;100.00
38400;BME280;24180;42.676;23.320;2023-02-19T05:46:17;95152.13;;;5.78;100.00
38400;BME280;24180;42.676;23.320;2023-02-19T05:48:44;95164.38;;;5.87;100.00
38400;BME280;24180;42.676;23.320;2023-02-19T05:51:12;95154.50;;;5.81;100.00
38400;BME280;24180;42.676;23.320;2023-02-19T05:53:38;95101.16;;;5.72;100.00
38400;BME280;24180;42.676;23.320;2023-02-19T05:56:05;95142.03;;;6.00;100.00
38400;BME280;24180;42.676;23.320;2023-02-19T05:58:43;95151.72;;;5.96;100.00
38400;BME280;24180;42.676;23.320;2023-02-19T06:01:18;95168.31;;;6.16;100.00
38400;BME280;24180;42.676;23.320;2023-02-19T06:03:44;95157.00;;;6.19;100.00
38400;BME280;24180;42.676;23.320;2023-02-19T06:06:13;95165.31;;;6.22;100.00
38400;BME280;24180;42.676;23.320;2023-02-19T06:08:39;95190.69;;;6.39;100.00
38400;BME280;24180;42.676;23.320;2023-02-19T06:11:04;95169.19;;;6.40;100.00
38400;BME280;24180;42.676;23.320;2023-02-19T06:13:30;95190.38;;;6.68;100.00
38400;BME280;24180;42.676;23.320;2023-02-19T06:15:55;95207.59;;;6.78;100.00
38400;BME280;24180;42.676;23.320;2023-02-19T06:18:21;95215.00;;;6.83;100.00
38400;BME280;24180;42.676;23.320;2023-02-19T06:20:46;95182.09;;;6.75;100.00
38400;BME280;24180;42.676;23.320;2023-02-19T06:23:12;95184.56;;;6.77;100.00
38400;BME280;24180;42.676;23.320;2023-02-19T06:25:37;95179.03;;;6.70;100.00
38400;BME280;24180;42.676;23.320;2023-02-19T06:28:03;95211.72;;;7.04;100.00
38400;BME280;24180;42.676;23.320;2023-02-19T06:30:29;95184.91;;;7.07;100.00
38400;BME280;24180;42.676;23.320;2023-02-19T06:32:54;95177.41;;;7.04;100.00
38400;BME280;24180;42.676;23.320;2023-02-19T06:35:19;95203.13;;;7.28;100.00
38400;BME280;24180;42.676;23.320;2023-02-19T06:37:46;95211.91;;;7.25;100.00
38400;BME280;24180;42.676;23.320;2023-02-19T06:40:12;95200.97;;;7.57;100.00
38400;BME280;24180;42.676;23.320;2023-02-19T06:42:37;95195.41;;;7.74;100.00
38400;BME280;24180;42.676;23.320;2023-02-19T06:45:03;95169.38;;;7.66;100.00
38400;BME280;24180;42.676;23.320;2023-02-19T06:47:32;95189.75;;;7.80;100.00
38400;BME280;24180;42.676;23.320;2023-02-19T06:49:58;95201.97;;;8.00;100.00
38400;BME280;24180;42.676;23.320;2023-02-19T06:52:24;95201.50;;;8.17;100.00
38400;BME280;24180;42.676;23.320;2023-02-19T06:54:49;95208.53;;;8.15;100.00
38400;BME280;24180;42.676;23.320;2023-02-19T06:57:15;95204.75;;;8.19;100.00
38400;BME280;24180;42.676;23.320;2023-02-19T06:59:40;95181.78;;;8.16;100.00
38400;BME280;24180;42.676;23.320;2023-02-19T07:02:06;95209.59;;;8.35;100.00
38400;BME280;24180;42.676;23.320;2023-02-19T07:04:34;95200.59;;;8.29;100.00
38400;BME280;24180;42.676;23.320;2023-02-19T07:06:59;95214.28;;;8.41;100.00
38400;BME280;24180;42.676;23.320;2023-02-19T07:09:25;95206.41;;;8.42;100.00
38400;BME280;24180;42.676;23.320;2023-02-19T07:11:52;95208.31;;;8.40;100.00
38400;BME280;24180;42.676;23.320;2023-02-19T07:14:18;95215.81;;;8.43;100.00
38400;BME280;24180;42.676;23.320;2023-02-19T07:16:43;95223.09;;;8.50;100.00
38400;BME280;24180;42.676;23.320;2023-02-19T07:19:09;95215.66;;;8.56;100.00
38400;BME280;24180;42.676;23.320;2023-02-19T07:21:35;95186.00;;;8.51;100.00
38400;BME280;24180;42.676;23.320;2023-02-19T07:24:02;95190.91;;;8.65;100.00
38400;BME280;24180;42.676;23.320;2023-02-19T07:26:28;95194.94;;;8.89;100.00
38400;BME280;24180;42.676;23.320;2023-02-19T07:28:54;95200.06;;;9.01;100.00
38400;BME280;24180;42.676;23.320;2023-02-19T07:31:21;95170.88;;;8.89;100.00
38400;BME280;24180;42.676;23.320;2023-02-19T07:33:47;95191.59;;;9.10;100.00
38400;BME280;24180;42.676;23.320;2023-02-19T07:36:14;95184.66;;;9.10;100.00
38400;BME280;24180;42.676;23.320;2023-02-19T07:38:40;95185.34;;;9.12;100.00
38400;BME280;24180;42.676;23.320;2023-02-19T07:41:05;95165.56;;;9.22;100.00
38400;BME280;24180;42.676;23.320;2023-02-19T07:43:34;95187.75;;;9.46;100.00
38400;BME280;24180;42.676;23.320;2023-02-19T07:46:04;95182.06;;;9.52;100.00
38400;BME280;24180;42.676;23.320;2023-02-19T07:48:30;95177.53;;;9.65;99.92
38400;BME280;24180;42.676;23.320;2023-02-19T07:50:57;95180.09;;;9.85;97.31
38400;BME280;24180;42.676;23.320;2023-02-19T07:53:24;95174.88;;;10.06;96.29
38400;BME280;24180;42.676;23.320;2023-02-19T07:55:51;95178.84;;;10.10;96.19
38400;BME280;24180;42.676;23.320;2023-02-19T07:58:16;95164.72;;;10.14;95.37
38400;BME280;24180;42.676;23.320;2023-02-19T08:00:42;95175.81;;;10.36;95.25
38400;BME280;24180;42.676;23.320;2023-02-19T08:03:08;95176.13;;;10.52;94.09
38400;BME280;24180;42.676;23.320;2023-02-19T08:05:39;95168.09;;;10.45;94.08
38400;BME280;24180;42.676;23.320;2023-02-19T08:08:06;95183.66;;;10.64;93.47
38400;BME280;24180;42.676;23.320;2023-02-19T08:10:32;95177.28;;;10.78;92.32
38400;BME280;24180;42.676;23.320;2023-02-19T08:13:16;95182.63;;;10.86;91.19
38400;BME280;24180;42.676;23.320;2023-02-19T08:15:50;95167.22;;;10.94;91.47
38400;BME280;24180;42.676;23.320;2023-02-19T08:18:19;95171.84;;;11.00;90.78
38400;BME280;24180;42.676;23.320;2023-02-19T08:20:45;95153.16;;;10.97;90.60
38400;BME280;24180;42.676;23.320;2023-02-19T08:23:11;95162.56;;;11.17;89.96
38400;BME280;24180;42.676;23.320;2023-02-19T08:25:37;95151.66;;;11.13;89.65
38400;BME280;24180;42.676;23.320;2023-02-19T08:28:03;95156.72;;;11.34;88.05
38400;BME280;24180;42.676;23.320;2023-02-19T08:30:29;95146.63;;;11.21;87.11
38400;BME280;24180;42.676;23.320;2023-02-19T08:32:57;95159.97;;;11.46;86.18
38400;BME280;24180;42.676;23.320;2023-02-19T08:35:22;95180.53;;;11.86;84.70
38400;BME280;24180;42.676;23.320;2023-02-19T08:37:48;95164.34;;;12.01;83.75
38400;BME280;24180;42.676;23.320;2023-02-19T08:40:13;95139.66;;;11.88;83.04
38400;BME280;24180;42.676;23.320;2023-02-19T08:42:38;95168.19;;;12.07;81.62
38400;BME280;24180;42.676;23.320;2023-02-19T08:45:04;95170.25;;;12.31;80.51
38400;BME280;24180;42.676;23.320;2023-02-19T08:47:30;95102.03;;;12.38;77.70
38400;BME280;24180;42.676;23.320;2023-02-19T08:49:55;95126.81;;;12.68;75.60
38400;BME280;24180;42.676;23.320;2023-02-19T08:52:21;95141.19;;;13.07;73.56
38400;BME280;24180;42.676;23.320;2023-02-19T08:54:46;95122.41;;;13.13;73.47
38400;BME280;24180;42.676;23.320;2023-02-19T08:57:12;95138.72;;;13.41;73.26
38400;BME280;24180;42.676;23.320;2023-02-19T08:59:37;95109.25;;;13.33;71.89
38400;BME280;24180;42.676;23.320;2023-02-19T09:02:02;95136.81;;;13.69;69.30
38400;BME280;24180;42.676;23.320;2023-02-19T09:04:28;95110.09;;;13.59;69.11
38400;BME280;24180;42.676;23.320;2023-02-19T09:06:53;95123.72;;;13.79;70.73
38400;BME280;24180;42.676;23.320;2023-02-19T09:09:19;95109.16;;;13.68;71.85
38400;BME280;24180;42.676;23.320;2023-02-19T09:11:44;95114.56;;;13.75;70.96
38400;BME280;24180;42.676;23.320;2023-02-19T09:14:10;95115.44;;;13.83;71.35
38400;BME280;24180;42.676;23.320;2023-02-19T09:16:35;95103.03;;;13.77;69.96
38400;BME280;24180;42.676;23.320;2023-02-19T09:19:02;95088.03;;;13.71;69.36
38400;BME280;24180;42.676;23.320;2023-02-19T09:21:27;95110.22;;;13.83;70.10
38400;BME280;24180;42.676;23.320;2023-02-19T09:23:53;95081.84;;;13.72;70.12
38400;BME280;24180;42.676;23.320;2023-02-19T09:26:18;95122.44;;;13.83;71.01
38400;BME280;24180;42.676;23.320;2023-02-19T09:28:44;95085.25;;;13.73;72.50
38400;BME280;24180;42.676;23.320;2023-02-19T09:31:12;95110.47;;;13.98;72.63
38400;BME280;24180;42.676;23.320;2023-02-19T09:33:41;95110.53;;;14.14;72.85
38400;BME280;24180;42.676;23.320;2023-02-19T09:36:07;95113.03;;;14.24;72.19
38400;BME280;24180;42.676;23.320;2023-02-19T09:38:33;95097.38;;;14.16;71.85
38400;BME280;24180;42.676;23.320;2023-02-19T09:41:50;95112.47;;;14.46;71.16
38400;BME280;24180;42.676;23.320;2023-02-19T09:43:50;95098.84;;;14.60;68.29
38400;BME280;24180;42.676;23.320;2023-02-19T09:46:39;95096.47;;;15.48;66.86
38400;BME280;24180;42.676;23.320;2023-02-19T09:49:14;95101.38;;;16.14;61.55
38400;BME280;24180;42.676;23.320;2023-02-19T09:51:45;95076.22;;;16.82;58.67
38400;BME280;24180;42.676;23.320;2023-02-19T09:54:25;95068.97;;;16.93;54.35
38400;BME280;24180;42.676;23.320;2023-02-19T09:56:56;95087.91;;;17.40;52.38
38400;BME280;24180;42.676;23.320;2023-02-19T09:59:39;95064.88;;;17.50;50.23
38400;BME280;24180;42.676;23.320;2023-02-19T10:02:13;95065.41;;;17.68;49.11
38400;BME280;24180;42.676;23.320;2023-02-19T10:04:41;95058.91;;;17.64;48.21
38400;BME280;24180;42.676;23.320;2023-02-19T10:07:19;95058.09;;;18.08;47.74
38400;BME280;24180;42.676;23.320;2023-02-19T10:09:59;95028.78;;;18.19;45.88
38400;BME280;24180;42.676;23.320;2023-02-19T10:12:28;95038.09;;;18.36;45.24
38400;BME280;24180;42.676;23.320;2023-02-19T10:15:00;95034.19;;;18.61;45.01
38400;BME280;24180;42.676;23.320;2023-02-19T10:17:30;95017.47;;;19.11;44.23
38400;BME280;24180;42.676;23.320;2023-02-19T10:19:59;95017.78;;;20.13;41.42
38400;BME280;24180;42.676;23.320;2023-02-19T10:22:27;94996.75;;;19.79;40.84
38400;BME280;24180;42.676;23.320;2023-02-19T10:24:55;94995.28;;;20.04;40.32
38400;BME280;24180;42.676;23.320;2023-02-19T10:27:20;95007.13;;;19.87;40.88
38400;BME280;24180;42.676;23.320;2023-02-19T10:29:47;95012.94;;;20.17;40.05
38400;BME280;24180;42.676;23.320;2023-02-19T10:32:16;94976.53;;;20.81;39.61
38400;BME280;24180;42.676;23.320;2023-02-19T10:34:45;94977.75;;;20.85;38.67
38400;BME280;24180;42.676;23.320;2023-02-19T10:37:13;94969.03;;;20.91;38.73
38400;BME280;24180;42.676;23.320;2023-02-19T10:39:45;94978.16;;;20.82;37.89
38400;BME280;24180;42.676;23.320;2023-02-19T10:42:16;94964.06;;;20.35;38.48
38400;BME280;24180;42.676;23.320;2023-02-19T10:44:44;94948.84;;;20.18;38.79
38400;BME280;24180;42.676;23.320;2023-02-19T10:47:16;94958.75;;;21.16;37.50
38400;BME280;24180;42.676;23.320;2023-02-19T10:49:42;94952.22;;;20.85;37.35
38400;BME280;24180;42.676;23.320;2023-02-19T10:52:29;94947.97;;;20.58;38.35
38400;BME280;24180;42.676;23.320;2023-02-19T10:55:25;94923.78;;;20.22;38.45
38400;BME280;24180;42.676;23.320;2023-02-19T10:57:50;94941.91;;;21.03;37.64
38400;BME280;24180;42.676;23.320;2023-02-19T11:00:27;94930.94;;;20.61;37.67
38400;BME280;24180;42.676;23.320;2023-02-19T11:03:16;94944.19;;;20.26;38.29
38400;BME280;24180;42.676;23.320;2023-02-19T11:06:01;94922.06;;;20.01;38.94
38400;BME280;24180;42.676;23.320;2023-02-19T11:08:28;94918.19;;;20.44;38.29
38400;BME280;24180;42.676;23.320;2023-02-19T11:10:54;94915.59;;;21.17;37.46
38400;BME280;24180;42.676;23.320;2023-02-19T11:13:31;94912.66;;;21.64;36.30
38400;BME280;24180;42.676;23.320;2023-02-19T11:15:57;94912.75;;;20.92;36.96
38400;BME280;24180;42.676;23.320;2023-02-19T11:18:26;94872.75;;;21.61;36.34
38400;BME280;24180;42.676;23.320;2023-02-19T11:20:54;94902.41;;;21.30;35.96
38400;BME280;24180;42.676;23.320;2023-02-19T11:25:52;94889.09;;;18.61;40.49
38400;BME280;24180;42.676;23.320;2023-02-19T11:30:46;94860.88;;;17.49;42.37
38400;BME280;24180;42.676;23.320;2023-02-19T11:35:48;94846.56;;;17.01;43.41
38400;BME280;24180;42.676;23.320;2023-02-19T11:38:17;94844.56;;;17.03;43.34
38400;BME280;24180;42.676;23.320;2023-02-19T11:54:17;94852.13;;;16.83;43.44
38400;BME280;24180;42.676;23.320;2023-02-19T11:56:48;94828.84;;;16.73;43.36
38400;BME280;24180;42.676;23.320;2023-02-19T11:59:41;94845.00;;;16.92;43.42
38400;BME280;24180;42.676;23.320;2023-02-19T12:07:50;94815.41;;;17.06;42.41
38400;BME280;24180;42.676;23.320;2023-02-19T12:19:00;94790.59;;;17.16;41.81
38400;BME280;24180;42.676;23.320;2023-02-19T12:27:19;94800.06;;;17.17;41.32
38400;BME280;24180;42.676;23.320;2023-02-19T12:40:42;94746.56;;;17.20;40.74
38400;BME280;24180;42.676;23.320;2023-02-19T12:43:18;94747.34;;;17.35;40.96
38400;BME280;24180;42.676;23.320;2023-02-19T12:48:32;94747.59;;;17.40;41.01
38400;BME280;24180;42.676;23.320;2023-02-19T12:56:39;94733.06;;;17.38;42.95
38400;BME280;24180;42.676;23.320;2023-02-19T13:02:16;94695.38;;;17.17;43.87
38400;BME280;24180;42.676;23.320;2023-02-19T13:10:41;94704.75;;;17.26;42.29
38400;BME280;24180;42.676;23.320;2023-02-19T13:13:20;94686.97;;;17.37;41.72
38400;BME280;24180;42.676;23.320;2023-02-19T13:15:52;94702.84;;;17.35;41.03
38400;BME280;24180;42.676;23.320;2023-02-19T13:18:29;94677.41;;;17.29;41.06
38400;BME280;24180;42.676;23.320;2023-02-19T13:20:56;94700.34;;;17.27;41.53
38400;BME280;24180;42.676;23.320;2023-02-19T13:23:25;94691.28;;;17.29;42.09
38400;BME280;24180;42.676;23.320;2023-02-19T13:37:13;94674.94;;;17.85;40.76
38400;BME280;24180;42.676;23.320;2023-02-19T13:39:47;94652.66;;;17.74;41.30
38400;BME280;24180;42.676;23.320;2023-02-19T13:42:30;94672.34;;;17.91;41.08
38400;BME280;24180;42.676;23.320;2023-02-19T13:44:56;94652.50;;;17.75;41.30
38400;BME280;24180;42.676;23.320;2023-02-19T13:50:17;94658.09;;;17.72;41.34
38400;BME280;24180;42.676;23.320;2023-02-19T13:52:43;94660.72;;;17.72;41.67
38400;BME280;24180;42.676;23.320;2023-02-19T14:01:01;94659.06;;;17.50;41.78
38400;BME280;24180;42.676;23.320;2023-02-19T14:06:16;94642.22;;;17.53;41.45
38400;BME280;24180;42.676;23.320;2023-02-19T14:08:55;94647.94;;;17.63;41.29
38400;BME280;24180;42.676;23.320;2023-02-19T14:14:41;94648.22;;;17.53;41.39
38400;BME280;24180;42.676;23.320;2023-02-19T14:30:55;94606.53;;;17.73;42.61
38400;BME280;24180;42.676;23.320;2023-02-19T14:33:24;94622.16;;;17.88;42.22
38400;BME280;24180;42.676;23.320;2023-02-19T14:35:58;94624.63;;;17.96;42.05
38400;BME280;24180;42.676;23.320;2023-02-19T14:38:30;94630.78;;;18.09;41.86
38400;BME280;24180;42.676;23.320;2023-02-19T14:40:58;94606.91;;;17.98;41.18
38400;BME280;24180;42.676;23.320;2023-02-19T14:43:24;94618.09;;;18.13;40.49
38400;BME280;24180;42.676;23.320;2023-02-19T14:46:06;94586.97;;;17.97;40.42
38400;BME280;24180;42.676;23.320;2023-02-19T14:48:40;94577.94;;;17.78;42.45
38400;BME280;24180;42.676;23.320;2023-02-19T14:51:13;94609.06;;;17.88;41.20
38400;BME280;24180;42.676;23.320;2023-02-19T14:53:43;94578.47;;;17.95;41.31
38400;BME280;24180;42.676;23.320;2023-02-19T14:56:24;94588.41;;;18.06;41.40
38400;BME280;24180;42.676;23.320;2023-02-19T15:01:38;94596.06;;;18.01;42.09
38400;BME280;24180;42.676;23.320;2023-02-19T15:04:04;94599.03;;;17.98;42.43
38400;BME280;24180;42.676;23.320;2023-02-19T15:06:32;94570.44;;;17.68;42.58
38400;BME280;24180;42.676;23.320;2023-02-19T15:09:02;94595.13;;;17.81;42.71
38400;BME280;24180;42.676;23.320;2023-02-19T15:11:30;94559.41;;;17.52;42.83
38400;BME280;24180;42.676;23.320;2023-02-19T15:13:59;94591.91;;;17.57;42.64
38400;BME280;24180;42.676;23.320;2023-02-19T15:16:26;94594.03;;;17.47;43.27
38400;BME280;24180;42.676;23.320;2023-02-19T15:18:54;94573.09;;;17.26;43.78
38400;BME280;24180;42.676;23.320;2023-02-19T15:21:23;94598.69;;;17.30;44.46